< Typhoon 199421 1994 Season Typhoon 199423 >
Typhoon 199422 (JOEL)
General InformationTrack Information on Google MapsDetailed Wind InformationList of All Images || Disaster Info.ResourceGoogle EarthGE AnimationAtom FeedGeoJSON
Detalied Best Track (Time Zone = UTC)
Year Month Day Hour Lat. Long. Pressure (hPa) Wind (kt) Class Image Chart
1994 9 3 06 16.0 113.5 1002 0 2 Image Chart
1994 9 3 12 16.0 113.5 1002 0 2 Image Chart
1994 9 3 18 16.2 112.5 1000 0 2 Image Chart
1994 9 4 00 16.5 111.5 998 0 2 Image Chart
1994 9 4 06 16.6 111.0 998 0 2 Image Chart
1994 9 4 12 16.7 110.5 998 0 2 Image Chart
1994 9 4 18 16.6 109.9 998 0 2 Image Chart
1994 9 5 00 16.3 109.4 998 0 2 Image Chart
1994 9 5 06 16.4 109.1 996 0 2 Image Chart
1994 9 5 12 16.7 108.9 994 0 2 Image Chart
1994 9 5 18 17.3 109.1 992 35 3 Image Chart
1994 9 6 00 17.9 109.5 990 40 3 Image Chart
1994 9 6 06 18.4 109.4 990 45 3 Image Chart
1994 9 6 12 19.2 108.5 990 45 3 Image Chart
1994 9 6 18 19.6 108.2 990 45 3 Image Chart
1994 9 7 00 20.0 107.8 990 40 3 Image Chart
1994 9 7 06 20.6 107.1 990 40 3 Image Chart
1994 9 7 12 21.2 106.5 990 40 3 Image Chart
1994 9 7 18 21.5 105.9 998 0 2 Image Chart
1994 9 8 00 21.9 105.5 1004 0 2 Image Chart
1994 9 8 06 22.5 105.0 1004 0 2 Image Chart
1994 9 8 12 23.5 104.5 1006 0 2 Image Chart
1994 9 8 18 24.5 103.5 1008 0 2 Image Chart
Japan Meteorological Agency Best Track Data | Correction Date : 1995-01-30
< Typhoon 199421 1994 Season Typhoon 199423 >

Help